Time;durP1;ratioP1;P1;durP2;ratioP2;P2;SDS_P1;SDS_P2;PMS_P1;PMS_P2;Temp;Humidity;BMP_temperature;BMP_pressure;BME280_temperature;BME280_humidity;BME280_pressure;Samples;Min_cycle;Max_cycle;Signal;HPM_P1;HPM_P2
2022/06/23 00:00:17;;;;;;;26.88;19.40;;;19.10;99.90;;;;;;4841802;29;20057;-67
2022/06/23 00:02:45;;;;;;;25.35;19.73;;;19.10;99.90;;;;;;4851825;29;20110;-67
2022/06/23 00:05:18;;;;;;;23.67;18.20;;;19.10;99.90;;;;;;4840716;29;20057;-67
2022/06/23 00:07:51;;;;;;;26.20;20.25;;;19.10;99.90;;;;;;4840374;29;20054;-68
2022/06/23 00:10:24;;;;;;;25.48;19.42;;;19.10;99.90;;;;;;4850872;29;20069;-67
2022/06/23 00:12:53;;;;;;;28.42;20.15;;;19.10;99.90;;;;;;4856048;29;20056;-67
2022/06/23 00:15:21;;;;;;;24.30;19.45;;;19.00;99.90;;;;;;4858020;29;20046;-67
2022/06/23 00:18:04;;;;;;;29.75;23.35;;;19.00;99.90;;;;;;4854692;29;20140;-66
2022/06/23 00:20:34;;;;;;;25.02;19.58;;;19.00;99.90;;;;;;4851186;29;20441;-67
2022/06/23 00:23:14;;;;;;;25.05;19.15;;;18.90;99.90;;;;;;4855749;29;20505;-66
2022/06/23 00:26:07;;;;;;;27.40;20.75;;;18.90;99.90;;;;;;4853430;29;20076;-67
2022/06/23 00:28:44;;;;;;;27.10;21.75;;;18.90;99.90;;;;;;4848630;29;20452;-66
2022/06/23 00:31:30;;;;;;;28.17;23.77;;;18.90;99.90;;;;;;4844583;29;20050;-68
2022/06/23 00:34:00;;;;;;;30.88;24.13;;;18.90;99.90;;;;;;4854642;29;20053;-66
2022/06/23 00:36:47;;;;;;;28.58;22.40;;;18.90;99.90;;;;;;4853383;29;20432;-67
2022/06/23 00:39:30;;;;;;;28.33;22.17;;;18.90;99.90;;;;;;4854508;29;20102;-67
2022/06/23 00:41:58;;;;;;;27.52;21.25;;;18.90;99.90;;;;;;4852727;29;20545;-67
2022/06/23 00:44:57;;;;;;;24.83;19.65;;;18.90;99.90;;;;;;4840066;29;20630;-67
2022/06/23 00:47:45;;;;;;;30.17;22.27;;;18.90;99.90;;;;;;4846362;29;20049;-67
2022/06/23 00:50:27;;;;;;;27.48;21.08;;;18.80;99.90;;;;;;4844208;29;20046;-67
2022/06/23 00:53:13;;;;;;;;;;;18.80;99.90;;;;;;4840511;29;20565;-67
2022/06/23 00:55:48;;;;;;;30.15;20.85;;;18.90;99.90;;;;;;4851983;29;20339;-67
2022/06/23 00:58:42;;;;;;;31.35;23.20;;;18.90;99.90;;;;;;4850773;29;20424;-67
2022/06/23 01:01:24;;;;;;;25.48;21.23;;;18.90;99.90;;;;;;4835001;29;20053;-67
2022/06/23 01:03:55;;;;;;;27.80;21.70;;;18.90;99.90;;;;;;4852725;29;20085;-68
2022/06/23 01:07:04;;;;;;;26.73;19.95;;;18.90;99.90;;;;;;4863726;29;20057;-67
2022/06/23 01:09:35;;;;;;;29.88;20.67;;;18.80;99.90;;;;;;4800853;29;20134;-67
2022/06/23 01:12:15;;;;;;;27.27;21.20;;;18.80;99.90;;;;;;4802154;29;20065;-67
2022/06/23 01:15:08;;;;;;;25.38;20.05;;;18.80;99.90;;;;;;4800917;29;20053;-66
2022/06/23 01:17:41;;;;;;;31.40;22.08;;;18.80;99.90;;;;;;4797341;29;20063;-70
2022/06/23 01:20:22;;;;;;;29.40;22.08;;;18.90;99.90;;;;;;4786189;29;20062;-67
2022/06/23 01:22:49;;;;;;;29.17;22.38;;;18.90;99.90;;;;;;4799173;29;20635;-67
2022/06/23 01:25:16;;;;;;;27.73;20.27;;;18.90;99.90;;;;;;4798717;29;20110;-67
2022/06/23 01:28:18;;;;;;;31.15;22.92;;;18.80;99.90;;;;;;4785224;29;20480;-66
2022/06/23 01:30:57;;;;;;;24.58;21.30;;;18.80;99.90;;;;;;4790787;29;20078;-67
2022/06/23 01:33:43;;;;;;;31.48;22.77;;;18.80;99.90;;;;;;4785363;29;20652;-67
2022/06/23 01:36:19;;;;;;;32.25;24.77;;;18.80;99.90;;;;;;4815266;29;20153;-67
2022/06/23 01:39:12;;;;;;;25.27;21.08;;;18.90;99.90;;;;;;4782179;29;20059;-66
2022/06/23 01:41:44;;;;;;;28.77;21.65;;;18.80;99.90;;;;;;4848051;29;20052;-67
2022/06/23 01:44:26;;;;;;;27.15;21.42;;;18.80;99.90;;;;;;4857328;29;20073;-66
2022/06/23 01:46:57;;;;;;;29.83;22.30;;;18.80;99.90;;;;;;4852857;29;20198;-67
2022/06/23 01:49:30;;;;;;;24.52;21.08;;;18.80;99.90;;;;;;4852813;29;20053;-66
2022/06/23 01:52:15;;;;;;;24.65;21.10;;;18.80;99.90;;;;;;4856942;29;20527;-67
2022/06/23 01:54:44;;;;;;;36.55;25.20;;;18.70;99.90;;;;;;4855937;29;20056;-66
2022/06/23 01:57:45;;;;;;;27.60;22.13;;;18.70;99.90;;;;;;4863131;29;20065;-67
2022/06/23 02:00:14;;;;;;;24.70;20.10;;;18.70;99.90;;;;;;4848657;29;20622;-67
2022/06/23 02:02:47;;;;;;;28.63;21.65;;;18.70;99.90;;;;;;4844296;29;20064;-66
2022/06/23 02:05:49;;;;;;;28.90;23.45;;;18.70;99.90;;;;;;4850807;29;20494;-67
2022/06/23 02:08:44;;;;;;;28.45;21.33;;;18.70;99.90;;;;;;4847668;29;20053;-67
2022/06/23 02:11:15;;;;;;;33.53;22.92;;;18.70;99.90;;;;;;4848197;29;20035;-67
2022/06/23 02:13:42;;;;;;;26.20;21.65;;;18.70;99.90;;;;;;4849930;29;20187;-66
2022/06/23 02:16:15;;;;;;;30.17;23.92;;;18.70;99.90;;;;;;4851966;29;20045;-66
2022/06/23 02:19:08;;;;;;;26.33;21.20;;;18.60;99.90;;;;;;4850553;29;20057;-66
2022/06/23 02:21:44;;;;;;;33.15;22.90;;;18.60;99.90;;;;;;4856533;29;20093;-66
2022/06/23 02:24:25;;;;;;;35.35;23.10;;;18.60;99.90;;;;;;4842111;29;20045;-66
2022/06/23 02:27:00;;;;;;;29.63;22.55;;;18.60;99.90;;;;;;4853018;29;20045;-67
2022/06/23 02:29:33;;;;;;;29.83;22.25;;;18.60;99.90;;;;;;4840296;29;20055;-68
2022/06/23 02:32:03;;;;;;;30.73;24.25;;;18.60;99.90;;;;;;4851455;29;20050;-67
2022/06/23 02:34:52;;;;;;;31.75;23.05;;;18.50;99.90;;;;;;4850618;29;20132;-67
2022/06/23 02:37:55;;;;;;;27.88;21.25;;;18.50;99.90;;;;;;4848827;29;20052;-67
2022/06/23 02:40:47;;;;;;;27.02;21.08;;;18.50;99.90;;;;;;4848342;29;20602;-66
2022/06/23 02:43:29;;;;;;;32.40;22.48;;;18.50;99.90;;;;;;4859711;29;20052;-66
2022/06/23 02:46:28;;;;;;;29.98;20.70;;;18.40;99.90;;;;;;4848900;29;20080;-66
2022/06/23 02:49:18;;;;;;;29.70;23.13;;;18.40;99.90;;;;;;4853916;29;20527;-67
2022/06/23 02:52:31;;;;;;;28.77;19.77;;;18.40;99.90;;;;;;4859602;29;20049;-67
2022/06/23 02:55:20;;;;;;;29.33;22.30;;;18.30;99.90;;;;;;4843725;29;20056;-67
2022/06/23 02:58:06;;;;;;;27.45;19.95;;;18.30;99.90;;;;;;4852096;29;20516;-66
2022/06/23 03:00:48;;;;;;;31.90;23.90;;;18.30;99.90;;;;;;4851565;29;20042;-68
2022/06/23 03:03:21;;;;;;;27.95;22.25;;;18.30;99.90;;;;;;4856905;29;20076;-66
2022/06/23 03:05:57;;;;;;;30.55;22.63;;;18.20;99.90;;;;;;4856559;29;20404;-66
2022/06/23 03:08:58;;;;;;;23.52;19.60;;;18.20;99.90;;;;;;4856472;29;20057;-66
2022/06/23 03:11:53;;;;;;;26.27;20.40;;;18.20;99.90;;;;;;4853731;29;20034;-66
2022/06/23 03:14:42;;;;;;;24.23;20.35;;;18.20;99.90;;;;;;4858024;29;20127;-66
2022/06/23 03:17:26;;;;;;;24.73;20.02;;;18.20;99.90;;;;;;4859588;29;20055;-67
2022/06/23 03:20:03;;;;;;;24.30;20.15;;;18.20;99.90;;;;;;4874221;29;20052;-66
2022/06/23 03:22:47;;;;;;;25.75;20.83;;;18.20;99.90;;;;;;4846851;29;20229;-66
2022/06/23 03:25:41;;;;;;;28.40;21.65;;;18.20;99.90;;;;;;4859827;29;20106;-66
2022/06/23 03:28:20;;;;;;;26.17;21.65;;;18.20;99.90;;;;;;4859150;29;20086;-67
2022/06/23 03:30:55;;;;;;;24.00;20.10;;;18.20;99.90;;;;;;4850491;29;20049;-67
2022/06/23 03:33:39;;;;;;;29.48;22.40;;;18.20;99.90;;;;;;4846769;29;20056;-67
2022/06/23 03:36:49;;;;;;;23.77;20.40;;;18.30;99.90;;;;;;4841325;29;20037;-67
2022/06/23 03:43:11;;;;;;;24.48;20.83;;;18.40;99.90;;;;;;4820439;29;20512;-67
2022/06/23 03:46:18;;;;;;;28.42;22.73;;;18.40;99.90;;;;;;4833987;29;20050;-66
2022/06/23 03:48:53;;;;;;;22.77;20.10;;;18.50;99.90;;;;;;4838771;29;20136;-66
2022/06/23 03:51:23;;;;;;;22.48;19.27;;;18.50;99.90;;;;;;4858843;29;20046;-68
2022/06/23 03:54:16;;;;;;;21.60;19.30;;;18.50;99.90;;;;;;4858897;29;20034;-68
2022/06/23 03:57:12;;;;;;;24.10;19.83;;;18.60;99.90;;;;;;4852462;29;20216;-68
2022/06/23 04:00:26;;;;;;;23.38;20.88;;;18.70;99.90;;;;;;4842007;29;20057;-68
2022/06/23 04:03:16;;;;;;;24.73;21.77;;;18.70;99.90;;;;;;4843777;29;20081;-68
2022/06/23 04:05:55;;;;;;;21.52;17.95;;;18.70;99.90;;;;;;4845598;29;20363;-68
2022/06/23 04:08:31;;;;;;;23.95;20.48;;;18.80;99.90;;;;;;4849075;29;20481;-68
2022/06/23 04:13:55;;;;;;;24.73;22.13;;;18.90;99.90;;;;;;4839535;29;20416;-68
2022/06/23 04:16:24;;;;;;;23.60;20.08;;;19.00;99.90;;;;;;4855993;29;20476;-68
2022/06/23 04:18:53;;;;;;;22.70;20.25;;;19.00;99.90;;;;;;4852144;29;20060;-67
2022/06/23 04:21:24;;;;;;;23.30;18.35;;;19.10;99.90;;;;;;4848349;29;20049;-67
2022/06/23 04:23:56;;;;;;;23.75;21.27;;;19.10;99.90;;;;;;4851660;29;20503;-67
2022/06/23 04:26:32;;;;;;;23.73;20.98;;;19.20;99.90;;;;;;4856980;29;20474;-67
2022/06/23 04:29:28;;;;;;;28.40;24.15;;;19.20;99.90;;;;;;4858159;29;20053;-67
2022/06/23 04:32:14;;;;;;;25.98;23.15;;;19.30;99.90;;;;;;4840271;29;20054;-66
2022/06/23 04:35:05;;;;;;;26.73;22.95;;;19.30;99.90;;;;;;4855075;29;20144;-66
2022/06/23 04:37:32;;;;;;;32.63;25.48;;;19.50;99.90;;;;;;4833380;29;20045;-67
2022/06/23 04:40:18;;;;;;;30.48;23.60;;;19.60;99.90;;;;;;4856189;29;20479;-67
2022/06/23 04:42:53;;;;;;;26.70;21.67;;;19.60;99.90;;;;;;4848667;29;20064;-67
2022/06/23 04:45:32;;;;;;;23.30;20.83;;;19.70;99.90;;;;;;4847171;29;20109;-67
2022/06/23 04:48:03;;;;;;;22.63;20.23;;;19.80;99.90;;;;;;4856470;29;20049;-68
2022/06/23 04:51:10;;;;;;;22.35;19.95;;;19.80;99.90;;;;;;4856690;29;20045;-67
2022/06/23 04:53:47;;;;;;;22.23;18.98;;;19.80;99.90;;;;;;4830987;29;20375;-68
2022/06/23 04:56:20;;;;;;;24.08;19.88;;;19.90;99.90;;;;;;4858241;29;20382;-66
2022/06/23 04:58:56;;;;;;;20.02;17.10;;;19.90;99.90;;;;;;4857040;29;20053;-66
2022/06/23 05:01:35;;;;;;;21.42;18.52;;;20.00;99.90;;;;;;4848485;29;20057;-67
2022/06/23 05:04:14;;;;;;;23.42;20.00;;;20.10;99.90;;;;;;4855280;29;20046;-66
2022/06/23 05:06:46;;;;;;;22.17;19.70;;;20.10;99.90;;;;;;4854108;29;20468;-66
2022/06/23 05:09:26;;;;;;;18.83;16.63;;;20.10;99.90;;;;;;4867394;29;20045;-67
2022/06/23 05:12:03;;;;;;;26.17;21.33;;;20.10;99.90;;;;;;4851110;29;20050;-67
2022/06/23 05:14:53;;;;;;;27.40;23.38;;;20.10;99.90;;;;;;4853180;29;20454;-66
2022/06/23 05:17:28;;;;;;;22.70;19.63;;;20.20;99.90;;;;;;4852799;29;20495;-67
2022/06/23 05:19:59;;;;;;;24.55;21.83;;;20.20;99.90;;;;;;4837835;29;20479;-66
2022/06/23 05:22:26;;;;;;;23.92;19.70;;;20.20;99.90;;;;;;4856417;29;20508;-66
2022/06/23 05:24:57;;;;;;;24.48;20.45;;;20.20;99.90;;;;;;4856538;29;20094;-66
2022/06/23 05:27:29;;;;;;;21.48;17.80;;;20.30;99.90;;;;;;4853557;29;20065;-67
2022/06/23 05:30:01;;;;;;;;;;;20.50;99.90;;;;;;4868271;29;20041;-66
2022/06/23 05:32:41;;;;;;;21.98;18.92;;;20.60;99.90;;;;;;4875050;29;19938;-66
2022/06/23 05:35:18;;;;;;;24.20;19.38;;;20.60;99.90;;;;;;4849014;29;20520;-66
2022/06/23 05:37:51;;;;;;;25.35;19.92;;;20.70;99.90;;;;;;4842098;29;20390;-66
2022/06/23 05:40:38;;;;;;;22.13;18.30;;;20.80;99.90;;;;;;4856024;29;20049;-67
2022/06/23 05:43:08;;;;;;;22.92;19.92;;;20.90;99.90;;;;;;4844016;29;20054;-67
2022/06/23 05:45:42;;;;;;;22.85;18.02;;;20.90;99.90;;;;;;4859457;29;20069;-66
2022/06/23 05:48:39;;;;;;;22.98;19.10;;;21.00;99.90;;;;;;4839928;29;20417;-66
2022/06/23 05:51:09;;;;;;;28.70;19.33;;;21.10;99.90;;;;;;4846192;29;20061;-67
2022/06/23 05:53:58;;;;;;;23.65;17.85;;;21.20;99.90;;;;;;4844414;29;20545;-66
2022/06/23 05:56:47;;;;;;;21.52;17.33;;;21.30;99.90;;;;;;4849185;29;20053;-66
2022/06/23 05:59:31;;;;;;;21.38;17.73;;;21.30;99.90;;;;;;4850372;29;20492;-66
2022/06/23 06:02:27;;;;;;;24.13;18.08;;;21.50;99.90;;;;;;4864024;29;20050;-66
2022/06/23 06:04:59;;;;;;;24.83;16.77;;;21.50;99.90;;;;;;4842123;29;20600;-66
2022/06/23 06:07:33;;;;;;;21.77;17.27;;;21.60;99.90;;;;;;4849871;29;20064;-66
2022/06/23 06:10:06;;;;;;;18.58;14.15;;;21.60;99.90;;;;;;4847051;29;20401;-68
2022/06/23 06:12:37;;;;;;;19.08;14.35;;;21.70;99.90;;;;;;4851281;29;20041;-66
2022/06/23 06:15:19;;;;;;;16.73;13.27;;;21.70;99.90;;;;;;4849674;29;20528;-67
2022/06/23 06:17:49;;;;;;;12.73;8.82;;;21.80;99.90;;;;;;4849991;29;20055;-67
2022/06/23 06:20:23;;;;;;;16.67;10.57;;;21.60;99.90;;;;;;4837940;29;20061;-67
2022/06/23 06:23:09;;;;;;;17.48;11.85;;;21.70;99.90;;;;;;4849538;29;20409;-67
2022/06/23 06:25:45;;;;;;;15.30;10.10;;;21.70;99.90;;;;;;4847225;29;20053;-68
2022/06/23 06:28:12;;;;;;;13.82;10.38;;;21.70;99.90;;;;;;4843625;29;20092;-67
2022/06/23 06:30:44;;;;;;;12.93;10.70;;;21.70;99.90;;;;;;4848785;29;20566;-67
2022/06/23 06:33:47;;;;;;;16.70;12.10;;;21.80;99.90;;;;;;4849571;29;20515;-67
2022/06/23 06:36:36;;;;;;;18.40;12.80;;;21.80;99.90;;;;;;4824874;29;20176;-67
2022/06/23 06:39:11;;;;;;;16.48;11.38;;;21.70;99.90;;;;;;4838240;29;20513;-66
2022/06/23 06:41:43;;;;;;;17.95;10.90;;;21.80;99.90;;;;;;4851379;29;20046;-66
2022/06/23 06:44:12;;;;;;;15.32;12.05;;;22.00;99.90;;;;;;4843191;29;20057;-68
2022/06/23 06:46:40;;;;;;;12.90;10.18;;;22.10;99.90;;;;;;4841887;29;20073;-67
2022/06/23 06:49:18;;;;;;;14.02;9.30;;;22.10;99.90;;;;;;4843596;29;20132;-68
2022/06/23 06:51:47;;;;;;;11.10;6.50;;;22.20;99.90;;;;;;4843386;29;20045;-68
2022/06/23 06:54:18;;;;;;;8.60;5.65;;;22.30;99.90;;;;;;4827134;29;20057;-67
2022/06/23 06:56:51;;;;;;;8.73;5.70;;;22.30;99.90;;;;;;4843932;29;20524;-68
2022/06/23 06:59:32;;;;;;;9.68;5.65;;;22.30;99.90;;;;;;4843735;29;20526;-67
2022/06/23 07:02:09;;;;;;;11.50;5.70;;;22.40;99.90;;;;;;4850991;29;20057;-68
2022/06/23 07:04:46;;;;;;;12.20;7.13;;;22.30;99.90;;;;;;4847222;29;20531;-67
2022/06/23 07:07:20;;;;;;;10.35;7.60;;;22.40;99.90;;;;;;4840622;29;20061;-67
2022/06/23 07:09:58;;;;;;;8.25;6.75;;;22.50;99.90;;;;;;4849789;29;20048;-66
2022/06/23 07:12:30;;;;;;;9.48;6.80;;;22.50;99.90;;;;;;4866673;29;20045;-66
2022/06/23 07:15:17;;;;;;;8.73;5.72;;;22.60;99.90;;;;;;4855383;29;20045;-67
2022/06/23 07:18:06;;;;;;;8.93;6.10;;;22.80;99.90;;;;;;4856359;29;20581;-67
2022/06/23 07:20:36;;;;;;;12.20;6.32;;;22.90;99.90;;;;;;4838777;29;20504;-67
2022/06/23 07:23:13;;;;;;;10.27;4.97;;;22.90;99.90;;;;;;4856179;29;20413;-66
2022/06/23 07:26:03;;;;;;;7.63;4.53;;;23.00;99.90;;;;;;4848570;29;20137;-68
2022/06/23 07:28:47;;;;;;;10.13;4.45;;;23.00;99.90;;;;;;4846541;29;20483;-67
2022/06/23 07:31:30;;;;;;;8.95;4.55;;;23.10;99.90;;;;;;4844394;29;20092;-67
2022/06/23 07:34:04;;;;;;;10.02;5.43;;;23.20;99.90;;;;;;4843172;29;20566;-69
2022/06/23 07:36:37;;;;;;;10.20;5.90;;;23.30;99.90;;;;;;4851724;29;20284;-68
2022/06/23 07:39:14;;;;;;;8.88;4.60;;;23.40;99.90;;;;;;4855272;29;20041;-68
2022/06/23 07:41:52;;;;;;;9.13;4.20;;;23.50;99.90;;;;;;4843289;29;20103;-68
2022/06/23 07:44:44;;;;;;;8.68;4.18;;;23.60;99.90;;;;;;4850433;29;20124;-68
2022/06/23 07:47:11;;;;;;;8.80;5.03;;;23.80;99.90;;;;;;4843173;29;20596;-68
2022/06/23 07:49:38;;;;;;;13.27;7.97;;;23.90;99.90;;;;;;4854376;29;20049;-67
2022/06/23 07:52:06;;;;;;;9.23;4.38;;;23.90;99.90;;;;;;4845678;29;20412;-68
2022/06/23 07:54:36;;;;;;;8.82;4.10;;;24.00;99.90;;;;;;4855856;29;20034;-68
2022/06/23 07:57:03;;;;;;;9.93;3.75;;;24.10;99.90;;;;;;4857867;29;20041;-68
2022/06/23 07:59:42;;;;;;;11.57;3.63;;;24.10;99.90;;;;;;4859699;29;20074;-68
2022/06/23 08:02:20;;;;;;;8.48;3.75;;;24.20;99.90;;;;;;4857664;29;20054;-67
2022/06/23 08:05:18;;;;;;;8.05;4.15;;;24.30;99.90;;;;;;4858896;29;20510;-67
2022/06/23 08:07:46;;;;;;;10.70;3.95;;;24.50;99.90;;;;;;4846305;29;20538;-69
2022/06/23 08:10:26;;;;;;;9.25;4.30;;;24.70;99.90;;;;;;4843128;29;20050;-68
2022/06/23 08:12:59;;;;;;;8.75;3.85;;;24.80;99.90;;;;;;4833528;29;20077;-68
2022/06/23 08:19:00;;;;;;;9.63;4.18;;;24.80;99.90;;;;;;4858726;29;20061;-68
2022/06/23 08:21:48;;;;;;;8.70;4.00;;;24.70;99.90;;;;;;4859919;29;20051;-68
2022/06/23 08:24:22;;;;;;;8.05;3.80;;;24.80;99.90;;;;;;4841869;29;20056;-68
2022/06/23 08:26:58;;;;;;;10.18;4.40;;;24.90;99.90;;;;;;4859031;29;20109;-68
2022/06/23 08:29:37;;;;;;;10.80;4.00;;;25.00;99.90;;;;;;4872657;29;20072;-67
2022/06/23 08:32:05;;;;;;;11.35;4.40;;;25.10;99.90;;;;;;4840569;29;20053;-68
2022/06/23 08:34:34;;;;;;;11.68;4.07;;;25.20;99.90;;;;;;4852990;29;20490;-68
2022/06/23 08:37:22;;;;;;;7.03;3.72;;;25.10;99.90;;;;;;4848934;29;20078;-68
2022/06/23 08:40:01;;;;;;;7.68;4.35;;;25.30;99.90;;;;;;4858751;29;20049;-68
2022/06/23 08:42:45;;;;;;;6.68;3.45;;;25.40;99.90;;;;;;4845647;29;20049;-68
2022/06/23 08:45:35;;;;;;;8.18;3.85;;;25.60;99.90;;;;;;4850464;29;20058;-68
2022/06/23 08:48:22;;;;;;;7.60;3.90;;;25.80;99.90;;;;;;4857018;29;20499;-68
2022/06/23 08:50:54;;;;;;;7.13;3.00;;;26.00;99.90;;;;;;4858301;29;20041;-68
2022/06/23 08:53:47;;;;;;;7.85;2.50;;;26.00;99.90;;;;;;4842282;29;20048;-69
2022/06/23 08:56:21;;;;;;;10.00;2.63;;;26.30;99.90;;;;;;4844066;29;20057;-69
2022/06/23 08:59:12;;;;;;;5.93;2.25;;;26.50;99.90;;;;;;4856843;29;20057;-68
2022/06/23 09:01:47;;;;;;;5.72;2.55;;;26.40;99.90;;;;;;4858758;29;20072;-68
2022/06/23 09:04:40;;;;;;;6.53;2.70;;;26.50;99.90;;;;;;4858605;29;20067;-67
2022/06/23 09:07:29;;;;;;;5.55;2.70;;;26.80;99.90;;;;;;4852218;29;20132;-67
2022/06/23 09:10:07;;;;;;;7.68;3.40;;;26.70;99.90;;;;;;4857845;29;20516;-68
2022/06/23 09:12:48;;;;;;;7.47;3.00;;;26.80;99.90;;;;;;4857767;29;20422;-67
2022/06/23 09:15:36;;;;;;;6.65;2.60;;;27.00;99.90;;;;;;4858171;29;20049;-67
2022/06/23 09:18:26;;;;;;;7.80;3.05;;;27.20;99.90;;;;;;4845618;29;20524;-68
2022/06/23 09:20:59;;;;;;;6.40;2.80;;;27.40;99.90;;;;;;4858165;29;20055;-66
2022/06/23 09:24:18;;;;;;;8.60;3.30;;;27.80;99.90;;;;;;4841598;29;20038;-68
2022/06/23 09:27:08;;;;;;;8.20;3.08;;;27.80;99.90;;;;;;4839869;29;20160;-69
2022/06/23 09:29:52;;;;;;;8.23;3.13;;;27.90;99.90;;;;;;4856929;29;20037;-70
2022/06/23 09:32:27;;;;;;;6.40;2.95;;;27.50;99.90;;;;;;4839629;29;20052;-68
2022/06/23 09:35:05;;;;;;;7.43;2.60;;;27.20;99.90;;;;;;4853431;29;20059;-68
2022/06/23 09:37:51;;;;;;;6.95;2.88;;;27.10;99.90;;;;;;4857397;29;20045;-68
2022/06/23 09:40:20;;;;;;;7.55;2.60;;;27.40;99.90;;;;;;4869750;29;20053;-68
2022/06/23 09:43:00;;;;;;;8.07;2.60;;;27.50;99.90;;;;;;4841127;29;20073;-68
2022/06/23 09:45:42;;;;;;;5.82;2.30;;;27.80;99.90;;;;;;4846823;29;20416;-68
2022/06/23 09:48:10;;;;;;;7.55;2.70;;;28.10;99.90;;;;;;4862153;29;20048;-67
2022/06/23 09:51:01;;;;;;;8.13;2.80;;;28.40;99.90;;;;;;4845888;29;20041;-68
2022/06/23 09:53:56;;;;;;;11.60;3.30;;;28.70;99.90;;;;;;4856567;29;20057;-70
2022/06/23 09:56:56;;;;;;;5.38;2.42;;;29.00;99.90;;;;;;4848159;29;20394;-66
2022/06/23 09:59:55;;;;;;;7.20;2.60;;;29.20;99.90;;;;;;4848822;29;20053;-68
2022/06/23 10:02:31;;;;;;;9.27;2.53;;;29.30;99.90;;;;;;4856722;29;20125;-67
2022/06/23 10:05:10;;;;;;;8.23;2.50;;;29.70;99.90;;;;;;4856841;29;20051;-67
2022/06/23 10:07:50;;;;;;;8.18;2.63;;;29.80;99.90;;;;;;4855874;29;20060;-67
2022/06/23 10:10:44;;;;;;;8.13;2.75;;;29.90;99.90;;;;;;4861852;29;20056;-66
2022/06/23 10:13:37;;;;;;;6.00;2.28;;;29.90;99.90;;;;;;4847162;29;20509;-66
2022/06/23 10:16:33;;;;;;;6.03;2.45;;;30.10;99.90;;;;;;4853940;29;20056;-67
2022/06/23 10:19:30;;;;;;;12.70;5.18;;;30.00;99.90;;;;;;4854796;29;20044;-67
2022/06/23 10:22:09;;;;;;;8.45;2.78;;;30.00;99.90;;;;;;4808427;29;20076;-67
2022/06/23 10:24:57;;;;;;;9.27;2.53;;;30.30;99.90;;;;;;4816140;29;20096;-68
2022/06/23 10:28:04;;;;;;;6.53;2.90;;;30.20;99.90;;;;;;4817370;29;20126;-67
2022/06/23 10:30:46;;;;;;;8.10;2.10;;;30.30;99.90;;;;;;4817682;29;20489;-67
2022/06/23 10:33:14;;;;;;;5.35;2.42;;;30.30;99.90;;;;;;4817648;29;20061;-67
2022/06/23 10:36:02;;;;;;;9.38;2.33;;;30.40;99.90;;;;;;4807747;29;20620;-68
2022/06/23 10:39:04;;;;;;;8.70;2.60;;;30.40;99.90;;;;;;4816812;29;20505;-66
2022/06/23 10:41:50;;;;;;;6.75;2.33;;;30.60;99.90;;;;;;4812093;29;20145;-65
2022/06/23 10:44:32;;;;;;;7.43;2.17;;;30.40;99.90;;;;;;4815240;29;20065;-66
2022/06/23 10:47:33;;;;;;;6.40;2.25;;;30.00;99.90;;;;;;4814301;29;20168;-66
2022/06/23 10:50:31;;;;;;;4.32;1.95;;;29.70;99.90;;;;;;4812555;29;20046;-67
2022/06/23 10:53:32;;;;;;;4.85;2.05;;;30.10;99.90;;;;;;4816684;29;20050;-68
2022/06/23 10:56:43;;;;;;;3.97;1.98;;;30.80;99.90;;;;;;4806595;29;20526;-68
2022/06/23 10:59:26;;;;;;;5.15;1.85;;;31.00;99.90;;;;;;4847809;29;20053;-68
2022/06/23 11:02:14;;;;;;;6.65;1.92;;;32.00;99.90;;;;;;4856108;29;20053;-68
2022/06/23 11:05:19;;;;;;;5.63;2.10;;;32.80;99.90;;;;;;4844398;29;20484;-67
2022/06/23 11:08:05;;;;;;;5.50;2.00;;;32.80;99.90;;;;;;4855585;29;20054;-67
2022/06/23 11:10:43;;;;;;;9.95;1.92;;;33.00;99.90;;;;;;4856085;29;20049;-68
2022/06/23 11:13:29;;;;;;;7.25;1.70;;;32.70;99.90;;;;;;4853965;29;20056;-68
2022/06/23 11:16:13;;;;;;;4.97;2.13;;;32.80;99.90;;;;;;4841297;29;20048;-67
2022/06/23 11:19:08;;;;;;;8.88;2.33;;;33.10;99.90;;;;;;4848024;29;20099;-66
2022/06/23 11:21:59;;;;;;;5.55;1.95;;;33.30;99.90;;;;;;4852301;29;20134;-66
2022/06/23 11:25:08;;;;;;;7.50;1.85;;;33.30;99.90;;;;;;4853568;29;20049;-66
2022/06/23 11:27:51;;;;;;;5.90;1.75;;;33.50;99.90;;;;;;4812258;29;20171;-67
2022/06/23 11:30:22;;;;;;;8.15;2.03;;;33.40;99.90;;;;;;4813298;29;20061;-68
2022/06/23 11:33:07;;;;;;;6.97;2.20;;;32.90;99.90;;;;;;4801438;29;20518;-68
2022/06/23 11:36:07;;;;;;;7.90;1.80;;;33.00;99.90;;;;;;4815229;29;20500;-68
2022/06/23 11:38:53;;;;;;;7.93;2.05;;;32.90;99.90;;;;;;4816560;29;20077;-67
2022/06/23 11:41:39;;;;;;;7.68;2.10;;;32.90;99.90;;;;;;4815485;29;20695;-67
2022/06/23 11:44:12;;;;;;;5.80;1.83;;;33.10;99.90;;;;;;4817737;29;20066;-67
2022/06/23 11:47:04;;;;;;;7.20;1.67;;;33.70;99.90;;;;;;4817036;29;20135;-67
2022/06/23 11:49:50;;;;;;;5.38;1.83;;;33.90;99.90;;;;;;4819314;29;20065;-68
2022/06/23 11:52:44;;;;;;;4.10;1.48;;;33.70;99.90;;;;;;4819148;29;20046;-67
2022/06/23 11:55:20;;;;;;;9.18;2.15;;;33.60;99.90;;;;;;4818635;29;20502;-67
2022/06/23 11:57:47;;;;;;;8.48;1.80;;;34.10;99.90;;;;;;4815395;29;20130;-67
2022/06/23 12:00:37;;;;;;;6.53;2.50;;;34.00;99.40;;;;;;4818938;29;20429;-70
2022/06/23 12:03:33;;;;;;;7.32;1.80;;;33.90;99.60;;;;;;4854163;29;20198;-67
2022/06/23 12:06:10;;;;;;;6.22;2.17;;;34.70;98.80;;;;;;4854953;29;20118;-68
2022/06/23 12:09:10;;;;;;;8.07;2.20;;;34.50;98.80;;;;;;4850978;29;20474;-69
2022/06/23 12:11:38;;;;;;;6.90;2.05;;;34.50;98.80;;;;;;4852679;29;20050;-69
2022/06/23 12:14:09;;;;;;;10.15;3.03;;;35.20;98.60;;;;;;4839716;29;20054;-67
2022/06/23 12:16:46;;;;;;;7.03;1.95;;;35.50;97.20;;;;;;4847664;29;20124;-68
2022/06/23 12:19:17;;;;;;;7.50;2.20;;;35.20;97.20;;;;;;4854038;29;20487;-67
2022/06/23 12:21:49;;;;;;;5.60;2.05;;;35.40;96.00;;;;;;4858933;29;20493;-67
2022/06/23 12:24:29;;;;;;;8.75;2.40;;;35.60;95.60;;;;;;4852521;29;20166;-68
2022/06/23 12:27:27;;;;;;;7.47;2.15;;;35.70;95.70;;;;;;4848462;29;20535;-68
2022/06/23 12:30:13;;;;;;;6.00;2.30;;;36.30;94.30;;;;;;4855927;29;20160;-69
2022/06/23 12:32:47;;;;;;;7.85;2.50;;;36.90;93.60;;;;;;4832792;29;20080;-68
2022/06/23 12:35:25;;;;;;;6.82;2.35;;;37.50;92.80;;;;;;4847382;29;20496;-68
2022/06/23 12:38:05;;;;;;;9.75;2.47;;;37.60;92.00;;;;;;4856763;29;20110;-67
2022/06/23 12:40:56;;;;;;;4.93;2.25;;;36.40;92.30;;;;;;4857020;29;20128;-67
2022/06/23 12:43:35;;;;;;;7.30;2.28;;;36.20;92.90;;;;;;4858269;29;20515;-68
2022/06/23 12:46:07;;;;;;;6.82;2.17;;;36.40;92.50;;;;;;4844423;29;20079;-68
2022/06/23 12:48:49;;;;;;;7.38;2.22;;;36.50;92.30;;;;;;4849113;29;20061;-67
2022/06/23 12:51:40;;;;;;;8.45;2.60;;;36.70;91.70;;;;;;4856623;29;20096;-68
2022/06/23 12:54:47;;;;;;;4.78;1.85;;;37.40;91.20;;;;;;4855857;29;20559;-67
2022/06/23 12:57:41;;;;;;;5.63;2.38;;;36.70;91.30;;;;;;4851709;29;20053;-69
2022/06/23 13:00:17;;;;;;;3.78;2.08;;;36.40;91.50;;;;;;4857683;29;20524;-67
2022/06/23 13:02:59;;;;;;;7.40;2.47;;;35.50;91.70;;;;;;4844249;29;20877;-68
2022/06/23 13:05:35;;;;;;;8.27;2.63;;;35.10;92.30;;;;;;4858173;29;20492;-69
2022/06/23 13:08:09;;;;;;;9.02;2.42;;;34.50;92.90;;;;;;4857095;29;20084;-69
2022/06/23 13:10:52;;;;;;;4.82;2.20;;;34.30;93.40;;;;;;4854563;29;20461;-68
2022/06/23 13:13:32;;;;;;;6.10;2.22;;;35.10;92.90;;;;;;4858144;29;20514;-68
2022/06/23 13:16:28;;;;;;;8.18;2.60;;;35.30;92.40;;;;;;4871172;29;20460;-68
2022/06/23 13:19:05;;;;;;;7.38;2.40;;;34.80;93.00;;;;;;4841638;29;20057;-68
2022/06/23 13:21:36;;;;;;;5.28;2.30;;;34.40;93.20;;;;;;4857208;29;20457;-68
2022/06/23 13:24:07;;;;;;;5.93;2.15;;;34.00;93.50;;;;;;4857485;29;20445;-70
2022/06/23 13:26:37;;;;;;;5.47;2.40;;;33.70;93.80;;;;;;4845904;29;20034;-68
2022/06/23 13:29:43;;;;;;;6.53;2.70;;;33.50;94.10;;;;;;4857052;29;20059;-68
2022/06/23 13:32:17;;;;;;;8.23;2.70;;;33.70;93.80;;;;;;4833958;29;20046;-67
2022/06/23 13:35:30;;;;;;;8.27;2.30;;;34.60;93.20;;;;;;4851066;29;20504;-67
2022/06/23 13:38:14;;;;;;;5.88;2.33;;;35.60;92.30;;;;;;4850029;29;20054;-68
2022/06/23 13:40:56;;;;;;;6.28;2.40;;;36.90;91.00;;;;;;4856589;29;20088;-68
2022/06/23 13:43:45;;;;;;;7.30;2.92;;;37.90;89.10;;;;;;4856475;29;20152;-67
2022/06/23 13:46:44;;;;;;;8.40;2.47;;;37.90;87.60;;;;;;4845419;29;20121;-67
2022/06/23 13:49:34;;;;;;;5.22;2.10;;;38.50;86.60;;;;;;4846572;29;20573;-68
2022/06/23 13:52:45;;;;;;;4.82;2.03;;;39.30;84.80;;;;;;4856157;29;20157;-67
2022/06/23 13:55:15;;;;;;;;;;;39.60;84.00;;;;;;4835327;29;20501;-68
2022/06/23 13:57:54;;;;;;;6.15;2.38;;;40.20;83.50;;;;;;4835826;29;19925;-68
2022/06/23 14:00:31;;;;;;;9.93;2.72;;;41.30;81.60;;;;;;4831638;29;20054;-67
2022/06/23 14:03:19;;;;;;;7.07;2.20;;;42.00;78.10;;;;;;4835681;29;20070;-67